DEGKG EDDF-EDDS
Flight info
| Callsign | DEGKG |
|---|---|
| Flight time | 0h 33m |
| Altitude | 19000 |
| Route | ANEKI3F/25C ANEKI Y163 NEKLO Y171 INKAM N850 KRH T128 BADSO BADSO2A |
| Aircraft | SF50/L-SDGRWY/L |
Departure
| Time | 2026-04-17 11:34 |
|---|---|
| Airport | Frankfurt Main Airport (EDDF) |
Arrival
| Time | 2026-04-17 12:08 |
|---|---|
| Airport | Stuttgart Airport (EDDS) |
| Time | Latitude | Longitude | Altitude | Speed | Heading |
|---|---|---|---|---|---|
| 2026-04-17 11:27 | 50.04936 | 8.59785 | 364 ft | 0 kts | 296° |
| 2026-04-17 11:31 | 50.04932 | 8.59781 | 364 ft | 3 kts | 149° |
| 2026-04-17 11:31 | 50.04897 | 8.59779 | 363 ft | 9 kts | 242° |
| 2026-04-17 11:31 | 50.04862 | 8.59644 | 360 ft | 18 kts | 250° |
| 2026-04-17 11:31 | 50.04849 | 8.59469 | 357 ft | 9 kts | 310° |
| 2026-04-17 11:32 | 50.04865 | 8.59373 | 350 ft | 10 kts | 255° |
| 2026-04-17 11:32 | 50.04852 | 8.59299 | 347 ft | 12 kts | 253° |
| 2026-04-17 11:32 | 50.04821 | 8.59166 | 338 ft | 14 kts | 249° |
| 2026-04-17 11:32 | 50.04783 | 8.59013 | 329 ft | 17 kts | 247° |
| 2026-04-17 11:33 | 50.04741 | 8.58834 | 322 ft | 17 kts | 242° |
| 2026-04-17 11:33 | 50.04644 | 8.58760 | 320 ft | 15 kts | 187° |
| 2026-04-17 11:33 | 50.04562 | 8.58683 | 319 ft | 12 kts | 220° |
| 2026-04-17 11:33 | 50.04502 | 8.58609 | 323 ft | 14 kts | 226° |
| 2026-04-17 11:34 | 50.04363 | 8.58088 | 324 ft | 96 kts | 248° |
| 2026-04-17 11:34 | 50.04052 | 8.56758 | 532 ft | 155 kts | 248° |
| 2026-04-17 11:34 | 50.03609 | 8.55061 | 1158 ft | 177 kts | 246° |
| 2026-04-17 11:34 | 50.03147 | 8.53292 | 2254 ft | 177 kts | 251° |
| 2026-04-17 11:35 | 50.02752 | 8.51468 | 3339 ft | 178 kts | 244° |
| 2026-04-17 11:35 | 50.01834 | 8.50239 | 4353 ft | 179 kts | 202° |
| 2026-04-17 11:35 | 50.00601 | 8.49579 | 4917 ft | 210 kts | 199° |
| 2026-04-17 11:35 | 49.99078 | 8.49074 | 5073 ft | 206 kts | 178° |
| 2026-04-17 11:36 | 49.97755 | 8.49241 | 5405 ft | 185 kts | 172° |
| 2026-04-17 11:36 | 49.96934 | 8.50519 | 5502 ft | 183 kts | 95° |
| 2026-04-17 11:36 | 49.96986 | 8.52489 | 5657 ft | 162 kts | 103° |
| 2026-04-17 11:36 | 49.96323 | 8.53724 | 5868 ft | 156 kts | 156° |
| 2026-04-17 11:37 | 49.95281 | 8.54058 | 6131 ft | 142 kts | 175° |
| 2026-04-17 11:37 | 49.94322 | 8.54028 | 6172 ft | 152 kts | 202° |
| 2026-04-17 11:37 | 49.93353 | 8.53288 | 6248 ft | 155 kts | 198° |
| 2026-04-17 11:37 | 49.92331 | 8.53134 | 6554 ft | 145 kts | 179° |
| 2026-04-17 11:38 | 49.91377 | 8.53194 | 6942 ft | 130 kts | 179° |
| 2026-04-17 11:38 | 49.90502 | 8.53240 | 7244 ft | 122 kts | 178° |
| 2026-04-17 11:38 | 49.89668 | 8.53291 | 7503 ft | 118 kts | 179° |
| 2026-04-17 11:38 | 49.88859 | 8.53345 | 7747 ft | 115 kts | 179° |
| 2026-04-17 11:39 | 49.88062 | 8.53401 | 7949 ft | 114 kts | 179° |
| 2026-04-17 11:39 | 49.87272 | 8.53459 | 8148 ft | 114 kts | 178° |
| 2026-04-17 11:39 | 49.86481 | 8.53518 | 8362 ft | 114 kts | 178° |
| 2026-04-17 11:39 | 49.85692 | 8.53572 | 8558 ft | 114 kts | 178° |
| 2026-04-17 11:40 | 49.84900 | 8.53632 | 8750 ft | 115 kts | 178° |
| 2026-04-17 11:40 | 49.83974 | 8.53696 | 9093 ft | 152 kts | 178° |
| 2026-04-17 11:40 | 49.82834 | 8.53780 | 9691 ft | 175 kts | 178° |
| 2026-04-17 11:40 | 49.81558 | 8.53870 | 10350 ft | 191 kts | 178° |
| 2026-04-17 11:41 | 49.80225 | 8.53962 | 11002 ft | 202 kts | 178° |
| 2026-04-17 11:41 | 49.78793 | 8.54064 | 11732 ft | 209 kts | 178° |
| 2026-04-17 11:41 | 49.77328 | 8.54026 | 12490 ft | 211 kts | 187° |
| 2026-04-17 11:41 | 49.75860 | 8.53802 | 13271 ft | 213 kts | 187° |
| 2026-04-17 11:42 | 49.74376 | 8.53603 | 13970 ft | 219 kts | 187° |
| 2026-04-17 11:42 | 49.72730 | 8.53386 | 13929 ft | 253 kts | 187° |
| 2026-04-17 11:42 | 49.70906 | 8.53147 | 13926 ft | 272 kts | 186° |
| 2026-04-17 11:42 | 49.68973 | 8.52897 | 13925 ft | 286 kts | 186° |
| 2026-04-17 11:43 | 49.66952 | 8.52630 | 13921 ft | 298 kts | 186° |
| 2026-04-17 11:43 | 49.64945 | 8.52367 | 13915 ft | 273 kts | 186° |
| 2026-04-17 11:43 | 49.63153 | 8.52136 | 13901 ft | 246 kts | 187° |
| 2026-04-17 11:43 | 49.61505 | 8.51915 | 13901 ft | 231 kts | 187° |
| 2026-04-17 11:44 | 49.59944 | 8.51708 | 13903 ft | 220 kts | 187° |
| 2026-04-17 11:44 | 49.58439 | 8.51510 | 13901 ft | 214 kts | 187° |
| 2026-04-17 11:44 | 49.56976 | 8.51316 | 13902 ft | 209 kts | 187° |
| 2026-04-17 11:44 | 49.55538 | 8.51128 | 13902 ft | 206 kts | 187° |
| 2026-04-17 11:45 | 49.54119 | 8.50943 | 13902 ft | 203 kts | 187° |
| 2026-04-17 11:45 | 49.52717 | 8.50758 | 13900 ft | 202 kts | 187° |
| 2026-04-17 11:45 | 49.51324 | 8.50577 | 13903 ft | 200 kts | 187° |
| 2026-04-17 11:45 | 49.49934 | 8.50396 | 13903 ft | 200 kts | 187° |
| 2026-04-17 11:46 | 49.48551 | 8.50215 | 13904 ft | 199 kts | 187° |
| 2026-04-17 11:46 | 49.47169 | 8.50034 | 13902 ft | 199 kts | 187° |
| 2026-04-17 11:46 | 49.45794 | 8.49854 | 13902 ft | 198 kts | 187° |
| 2026-04-17 11:46 | 49.44417 | 8.49674 | 13902 ft | 198 kts | 187° |
| 2026-04-17 11:47 | 49.43041 | 8.49494 | 13902 ft | 198 kts | 187° |
| 2026-04-17 11:47 | 49.41670 | 8.49314 | 13902 ft | 198 kts | 187° |
| 2026-04-17 11:47 | 49.40296 | 8.49137 | 13904 ft | 198 kts | 187° |
| 2026-04-17 11:47 | 49.38927 | 8.48965 | 13907 ft | 198 kts | 185° |
| 2026-04-17 11:48 | 49.37578 | 8.48659 | 13897 ft | 194 kts | 204° |
| 2026-04-17 11:48 | 49.36582 | 8.47352 | 13904 ft | 188 kts | 225° |
| 2026-04-17 11:48 | 49.35364 | 8.46659 | 13901 ft | 196 kts | 179° |
| 2026-04-17 11:48 | 49.34084 | 8.47360 | 13910 ft | 197 kts | 154° |
| 2026-04-17 11:49 | 49.32863 | 8.48340 | 13916 ft | 199 kts | 154° |
| 2026-04-17 11:49 | 49.31615 | 8.49292 | 13887 ft | 201 kts | 155° |
| 2026-04-17 11:49 | 49.30318 | 8.50228 | 13659 ft | 211 kts | 157° |
| 2026-04-17 11:49 | 49.28947 | 8.51166 | 13405 ft | 219 kts | 158° |
| 2026-04-17 11:50 | 49.27517 | 8.52094 | 13055 ft | 228 kts | 159° |
| 2026-04-17 11:50 | 49.26025 | 8.53010 | 12697 ft | 233 kts | 160° |
| 2026-04-17 11:50 | 49.24496 | 8.53902 | 12339 ft | 237 kts | 160° |
| 2026-04-17 11:50 | 49.22935 | 8.54769 | 11927 ft | 240 kts | 161° |
| 2026-04-17 11:51 | 49.21349 | 8.55609 | 11516 ft | 242 kts | 162° |
| 2026-04-17 11:51 | 49.19745 | 8.56414 | 11098 ft | 243 kts | 163° |
| 2026-04-17 11:51 | 49.18133 | 8.57186 | 10690 ft | 243 kts | 163° |
| 2026-04-17 11:51 | 49.16516 | 8.57921 | 10289 ft | 243 kts | 164° |
| 2026-04-17 11:52 | 49.14894 | 8.58623 | 9885 ft | 242 kts | 165° |
| 2026-04-17 11:52 | 49.13291 | 8.59281 | 9455 ft | 241 kts | 166° |
| 2026-04-17 11:52 | 49.11673 | 8.59912 | 9031 ft | 239 kts | 166° |
| 2026-04-17 11:52 | 49.10062 | 8.60504 | 8609 ft | 238 kts | 167° |
| 2026-04-17 11:53 | 49.08446 | 8.61061 | 8198 ft | 237 kts | 167° |
| 2026-04-17 11:53 | 49.06858 | 8.61573 | 8048 ft | 226 kts | 168° |
| 2026-04-17 11:53 | 49.05357 | 8.62020 | 8045 ft | 215 kts | 169° |
| 2026-04-17 11:53 | 49.03915 | 8.62414 | 8047 ft | 207 kts | 170° |
| 2026-04-17 11:54 | 49.02488 | 8.62766 | 8047 ft | 203 kts | 171° |
| 2026-04-17 11:54 | 49.01121 | 8.63065 | 8047 ft | 200 kts | 172° |
| 2026-04-17 11:54 | 48.99730 | 8.63334 | 8045 ft | 198 kts | 173° |
| 2026-04-17 11:54 | 48.98382 | 8.63560 | 8046 ft | 196 kts | 174° |
| 2026-04-17 11:55 | 48.97026 | 8.63755 | 8047 ft | 196 kts | 175° |
| 2026-04-17 11:55 | 48.95667 | 8.63919 | 8046 ft | 196 kts | 175° |
| 2026-04-17 11:55 | 48.94309 | 8.64052 | 8046 ft | 195 kts | 176° |
| 2026-04-17 11:55 | 48.92952 | 8.64156 | 8047 ft | 195 kts | 177° |
| 2026-04-17 11:56 | 48.91595 | 8.64230 | 8047 ft | 195 kts | 178° |
| 2026-04-17 11:56 | 48.90238 | 8.64277 | 8047 ft | 195 kts | 179° |
| 2026-04-17 11:56 | 48.88886 | 8.64297 | 8047 ft | 194 kts | 179° |
| 2026-04-17 11:56 | 48.87531 | 8.64292 | 8049 ft | 195 kts | 180° |
| 2026-04-17 11:57 | 48.86175 | 8.64259 | 8046 ft | 195 kts | 181° |
| 2026-04-17 11:57 | 48.84822 | 8.64208 | 8046 ft | 193 kts | 179° |
| 2026-04-17 11:57 | 48.83547 | 8.64759 | 8048 ft | 192 kts | 154° |
| 2026-04-17 11:57 | 48.82347 | 8.65655 | 8050 ft | 192 kts | 154° |
| 2026-04-17 11:58 | 48.81142 | 8.66546 | 8051 ft | 193 kts | 154° |
| 2026-04-17 11:58 | 48.79934 | 8.67439 | 8052 ft | 193 kts | 154° |
| 2026-04-17 11:58 | 48.78721 | 8.68334 | 8003 ft | 196 kts | 154° |
| 2026-04-17 11:58 | 48.77476 | 8.69252 | 7825 ft | 203 kts | 154° |
| 2026-04-17 11:59 | 48.76186 | 8.70200 | 7629 ft | 208 kts | 154° |
| 2026-04-17 11:59 | 48.74871 | 8.71162 | 7435 ft | 211 kts | 154° |
| 2026-04-17 11:59 | 48.73539 | 8.72131 | 7251 ft | 213 kts | 154° |
| 2026-04-17 11:59 | 48.72198 | 8.73094 | 7068 ft | 214 kts | 154° |
| 2026-04-17 12:00 | 48.70847 | 8.74046 | 6891 ft | 214 kts | 154° |
| 2026-04-17 12:00 | 48.69497 | 8.74998 | 6695 ft | 213 kts | 154° |
| 2026-04-17 12:00 | 48.68151 | 8.75933 | 6476 ft | 213 kts | 154° |
| 2026-04-17 12:00 | 48.66807 | 8.76878 | 6269 ft | 213 kts | 153° |
| 2026-04-17 12:01 | 48.65466 | 8.77824 | 6078 ft | 212 kts | 154° |
| 2026-04-17 12:01 | 48.64172 | 8.78856 | 5859 ft | 210 kts | 140° |
| 2026-04-17 12:01 | 48.63367 | 8.80644 | 5634 ft | 209 kts | 115° |
| 2026-04-17 12:01 | 48.62857 | 8.82682 | 5454 ft | 206 kts | 96° |
| 2026-04-17 12:02 | 48.62839 | 8.84817 | 5328 ft | 203 kts | 88° |
| 2026-04-17 12:02 | 48.62979 | 8.86940 | 5179 ft | 203 kts | 83° |
| 2026-04-17 12:02 | 48.63240 | 8.89022 | 4989 ft | 204 kts | 77° |
| 2026-04-17 12:02 | 48.63583 | 8.91076 | 4976 ft | 198 kts | 76° |
| 2026-04-17 12:03 | 48.63912 | 8.93058 | 5021 ft | 192 kts | 77° |
| 2026-04-17 12:03 | 48.64217 | 8.94982 | 5096 ft | 185 kts | 77° |
| 2026-04-17 12:03 | 48.64523 | 8.96872 | 5008 ft | 188 kts | 77° |
| 2026-04-17 12:03 | 48.64851 | 8.98781 | 4752 ft | 179 kts | 77° |
| 2026-04-17 12:04 | 48.65126 | 9.00479 | 4680 ft | 156 kts | 76° |
| 2026-04-17 12:04 | 48.65532 | 9.02043 | 4277 ft | 162 kts | 59° |
| 2026-04-17 12:04 | 48.65946 | 9.03586 | 3962 ft | 157 kts | 76° |
| 2026-04-17 12:04 | 48.66160 | 9.05174 | 3865 ft | 149 kts | 83° |
| 2026-04-17 12:05 | 48.66309 | 9.06755 | 3644 ft | 152 kts | 83° |
| 2026-04-17 12:05 | 48.66476 | 9.08326 | 3607 ft | 148 kts | 79° |
| 2026-04-17 12:05 | 48.66682 | 9.09805 | 3502 ft | 142 kts | 78° |
| 2026-04-17 12:05 | 48.66932 | 9.11264 | 3290 ft | 140 kts | 76° |
| 2026-04-17 12:06 | 48.67192 | 9.12686 | 2978 ft | 143 kts | 75° |
| 2026-04-17 12:06 | 48.67470 | 9.14114 | 2714 ft | 136 kts | 73° |
| 2026-04-17 12:06 | 48.67722 | 9.15470 | 2451 ft | 133 kts | 74° |
| 2026-04-17 12:06 | 48.67953 | 9.16813 | 2182 ft | 130 kts | 76° |
| 2026-04-17 12:07 | 48.68186 | 9.18136 | 1817 ft | 133 kts | 72° |
| 2026-04-17 12:07 | 48.68469 | 9.19450 | 1586 ft | 130 kts | 73° |
| 2026-04-17 12:07 | 48.68721 | 9.20759 | 1336 ft | 129 kts | 75° |
| 2026-04-17 12:07 | 48.68936 | 9.21922 | 1279 ft | 80 kts | 66° |
| 2026-04-17 12:08 | 48.68988 | 9.22236 | 1279 ft | 16 kts | 64° |
| 2026-04-17 12:08 | 48.69023 | 9.22375 | 1279 ft | 12 kts | 68° |
| 2026-04-17 12:08 | 48.69058 | 9.22505 | 1279 ft | 14 kts | 55° |
| 2026-04-17 12:08 | 48.69154 | 9.22522 | 1279 ft | 16 kts | 350° |
| 2026-04-17 12:09 | 48.69262 | 9.22464 | 1279 ft | 17 kts | 319° |
| 2026-04-17 12:09 | 48.69255 | 9.22293 | 1279 ft | 18 kts | 263° |
| 2026-04-17 12:09 | 48.69227 | 9.22104 | 1279 ft | 19 kts | 256° |
| 2026-04-17 12:09 | 48.69188 | 9.21899 | 1279 ft | 21 kts | 252° |
| 2026-04-17 12:10 | 48.69147 | 9.21677 | 1279 ft | 23 kts | 259° |
| 2026-04-17 12:10 | 48.69103 | 9.21438 | 1279 ft | 24 kts | 257° |
| 2026-04-17 12:10 | 48.69057 | 9.21203 | 1279 ft | 21 kts | 252° |
| 2026-04-17 12:10 | 48.69076 | 9.21037 | 1279 ft | 15 kts | 334° |
| 2026-04-17 12:11 | 48.69093 | 9.21014 | 1279 ft | 0 kts | 317° |